• Join FlightAware (Why Join?)
  • Login
  • US Flag 
01:45PM EST


 

Airport Tracker/Info


-or-


 

Live Flight TrackerFlight Track Log ✈ QLK61 ✈ 22-Jul-2013 ✈ YMML / MEL - YDPO

Flight Track Log - Related Links

Times and Time Zones

All times are in EDT time to prevent confusion due to time zone crossing. See the QLK61 flight status page for this flight to view local times or setup timezone preferences in your user account.

Time Position Orientation Groundspeed Altitude Reporting Facility
EDT Latitude Longitude Course Direction KTS MPH feet Rate Location/Type
05:16AM -37.6598 144.8084 269° West 125 144 1,200  Level Aus ATC (RADAR)
05:17AM -37.6605 144.7647 269° West 125 144 2,700 1,500 Climbing Aus ATC (RADAR)
05:18AM -37.6805 144.7293 234° Southwest 142 163 4,000 1,500 Climbing Aus ATC (RADAR)
05:19AM -37.6948 144.6957 242° Southwest 143 165 5,100 1,200 Climbing Aus ATC (RADAR)
05:19AM -37.7067 144.6664 243° Southwest 160 184 5,600 1,200 Climbing Aus ATC (RADAR)
05:20AM -37.7268 144.6232 240° Southwest 170 196 6,800 1,320 Climbing Aus ATC (RADAR)
05:21AM -37.7758 144.6362 168° South 185 213 8,100 1,200 Climbing Aus ATC (RADAR)
05:22AM -37.8247 144.6597 159° South 190 219 9,200 1,140 Climbing Aus ATC (RADAR)
05:23AM -37.8740 144.6837 159° South 192 221 10,400 1,140 Climbing Aus ATC (RADAR)
05:24AM -37.9030 144.6983 158° South 193 222 11,000 1,020 Climbing Aus ATC (RADAR)
05:24AM -37.9324 144.7137 158° South 195 224 11,600 900 Climbing Aus ATC (RADAR)
05:25AM -37.9608 144.7278 159° South 191 220 12,100 780 Climbing Aus ATC (RADAR)
05:25AM -37.9945 144.7452 158° South 194 223 12,600 840 Climbing Aus ATC (RADAR)
05:26AM -38.0240 144.7600 159° South 195 224 13,200 900 Climbing Aus ATC (RADAR)
05:27AM -38.0619 144.7794 158° South 196 226 13,800 780 Climbing Aus ATC (RADAR)
05:27AM -38.0919 144.7942 159° South 198 228 14,300 780 Climbing Aus ATC (RADAR)
05:28AM -38.1264 144.8120 158° South 202 232 14,800 840 Climbing Aus ATC (RADAR)
05:29AM -38.1655 144.8323 158° South 202 232 15,500 840 Climbing Aus ATC (RADAR)
05:30AM -38.2176 144.8589 158° South 200 230 16,300 900 Climbing Aus ATC (RADAR)
05:31AM -38.2602 144.8802 159° South 196 226 17,200 900 Climbing Aus ATC (RADAR)
05:31AM -38.2900 144.8950 159° South 197 227 17,600 720 Climbing Aus ATC (RADAR)
05:32AM -38.3239 144.9122 158° South 196 226 18,100 600 Climbing Aus ATC (RADAR)
05:32AM -38.3535 144.9279 157° South 197 227 18,400 660 Climbing Aus ATC (RADAR)
05:33AM -38.3835 144.9434 158° South 197 227 18,900 540 Climbing Aus ATC (RADAR)
05:34AM -38.4270 144.9657 158° South 204 235 19,200 60 Climbing Aus ATC (RADAR)
05:35AM -38.4848 144.9949 158° South 225 259 19,100 -60 Descending Aus ATC (RADAR)
05:36AM -38.5364 145.0214 158° South 239 275 19,100  Level Aus ATC (RADAR)
05:36AM -38.5734 145.0404 158° South 245 282 19,100  Level Aus ATC (RADAR)
05:37AM -38.6159 145.0623 158° South 246 283 19,100  Level Aus ATC (RADAR)
05:38AM -38.6580 145.0841 158° South 246 283 19,100  Level Aus ATC (RADAR)
05:38AM -38.6959 145.1029 159° South 248 285 19,100  Level Aus ATC (RADAR)
05:39AM -38.7439 145.1281 158° South 247 284 19,100  Level Aus ATC (RADAR)
05:40AM -38.8085 145.1624 158° South 250 288 19,100  Level Aus ATC (RADAR)
05:41AM -38.8573 145.1865 159° South 249 287 19,100  Level Aus ATC (RADAR)
05:41AM -38.8948 145.2064 158° South 249 287 19,100  Level Aus ATC (RADAR)
05:42AM -38.9325 145.2263 158° South 248 285 19,100  Level Aus ATC (RADAR)
05:43AM -38.9812 145.2524 157° South 250 288 19,100  Level Aus ATC (RADAR)
05:44AM -39.0459 145.2842 159° South 247 284 19,100  Level Aus ATC (RADAR)
05:44AM -39.0938 145.3112 156° South 249 287 19,100  Level Aus ATC (RADAR)
05:45AM -39.1311 145.3311 157° South 248 285 19,100  Level Aus ATC (RADAR)
05:45AM -39.1685 145.3503 158° South 247 284 19,100  Level Aus ATC (RADAR)
05:46AM -39.2056 145.3706 157° South 246 283 19,100  Level Aus ATC (RADAR)
05:47AM -39.2487 145.3906 160° South 244 281 19,100  Level Aus ATC (RADAR)
05:47AM -39.2911 145.4129 158° South 244 281 19,100  Level Aus ATC (RADAR)
05:48AM -39.3229 145.4307 157° South 246 283 19,100  Level Aus ATC (RADAR)
05:49AM -39.3650 145.4549 156° South 247 284 19,100  Level Aus ATC (RADAR)
05:49AM -39.4131 145.4796 158° South 248 285 19,100  Level Aus ATC (RADAR)
05:50AM -39.4768 145.5117 159° South 243 280 19,100  Level Aus ATC (RADAR)
05:51AM -39.5185 145.5352 157° South 242 278 19,100  Level Aus ATC (RADAR)
05:52AM -39.5552 145.5553 157° South 243 280 19,100  Level Aus ATC (RADAR)
05:52AM -39.5918 145.5739 159° South 241 277 19,100  Level Aus ATC (RADAR)
05:53AM -39.6393 145.5980 159° South 240 276 19,100  Level Aus ATC (RADAR)
05:54AM -39.6809 145.6228 155° Southeast 243 280 19,100  Level Aus ATC (RADAR)
05:54AM -39.7186 145.6401 161° South 244 281 19,100  Level Aus ATC (RADAR)
05:55AM -39.7499 145.6577 157° South 244 281 19,100  Level Aus ATC (RADAR)
05:55AM -39.7869 145.6770 158° South 243 280 19,100  Level Aus ATC (RADAR)
05:56AM -39.8230 145.6972 157° South 241 277 19,100  Level Aus ATC (RADAR)
05:56AM -39.8599 145.7155 159° South 242 278 19,100 -180 Level Aus ATC (RADAR)
05:57AM -39.8969 145.7332 160° South 242 278 18,900 -180 Descending Aus ATC (RADAR)
05:58AM -39.9428 145.7618 154° Southeast 240 276 18,900  Level Aus ATC (RADAR)
05:59AM -40.0085 145.7849 165° South 241 277 18,900 120 Level Aus ATC (RADAR)
05:59AM -40.0489 145.8136 151° Southeast 241 277 19,100 120 Climbing Aus ATC (RADAR)
06:00AM -40.0849 145.8346 156° South 240 276 19,100  Level Aus ATC (RADAR)
06:01AM -40.1198 145.8582 153° Southeast 239 275 19,100 -180 Level Aus ATC (RADAR)
06:01AM -40.1608 145.8795 158° South 236 272 18,900 -180 Descending Aus ATC (RADAR)
06:02AM -40.1964 145.8979 158° South 233 268 18,900  Level Aus ATC (RADAR)
06:03AM -40.2474 145.9262 157° South 236 272 18,900 -240 Level Aus ATC (RADAR)
06:03AM -40.2830 145.9460 157° South 237 273 18,600 -1,140 Descending Aus ATC (RADAR)
06:04AM -40.3229 145.9633 162° South 253 291 17,600 -1,680 Descending Aus ATC (RADAR)
06:04AM -40.3632 145.9832 159° South 258 297 16,700 -1,560 Descending Aus ATC (RADAR)
06:05AM -40.4026 146.0065 156° South 260 299 15,800 -1,440 Descending Aus ATC (RADAR)
06:06AM -40.4527 146.0321 159° South 251 289 14,800 -1,380 Descending Aus ATC (RADAR)
06:07AM -40.5166 146.0720 155° Southeast 249 287 13,400 -1,380 Descending Aus ATC (RADAR)
06:07AM -40.5659 146.0989 157° South 250 288 12,400 -1,320 Descending Aus ATC (RADAR)
06:08AM -40.6039 146.1196 158° South 249 287 11,700 -1,320 Descending Aus ATC (RADAR)
06:09AM -40.6526 146.1465 157° South 247 284 10,700 -1,320 Descending Aus ATC (RADAR)
06:10AM -40.7215 146.1843 157° South 241 277 9,300 -1,260 Descending Aus ATC (RADAR)
06:10AM -40.7635 146.2074 157° South 239 275 8,500 -1,320 Descending Aus ATC (RADAR)
06:11AM -40.8001 146.2272 158° South 239 275 7,700 -1,320 Descending Aus ATC (RADAR)
06:12AM -40.8362 146.2473 157° South 237 273 7,000 -1,320 Descending Aus ATC (RADAR)
06:12AM -40.8717 146.2677 157° South 232 267 6,200 -1,320 Descending Aus ATC (RADAR)
06:13AM -40.9065 146.2872 157° South 228 262 5,500 -1,140 Descending Aus ATC (RADAR)
06:13AM -40.9411 146.3061 158° South 225 259 4,900 -1,200 Descending Aus ATC (RADAR)
06:14AM -40.9750 146.3246 158° South 220 253 4,100 -1,320 Descending Aus ATC (RADAR)
06:15AM -41.0083 146.3426 158° South 217 250 3,400 -1,140 Descending Aus ATC (RADAR)
06:15AM -41.0406 146.3608 157° South 209 241 2,800 -1,020 Descending Aus ATC (RADAR)
06:16AM -41.0657 146.3748 157° South 195 224 2,300 -1,020 Descending Aus ATC (RADAR)